Time;durP1;ratioP1;P1;durP2;ratioP2;P2;SDS_P1;SDS_P2;PMS_P1;PMS_P2;Temp;Humidity;BMP_temperature;BMP_pressure;BME280_temperature;BME280_humidity;BME280_pressure;Samples;Min_cycle;Max_cycle;Signal;HPM_P1;HPM_P2
2021/04/27 00:01:15;;;;;;;;;;;;;;;;;;5074265;28;19916;-76
2021/04/27 00:03:40;;;;;;;;;;;;;;;;;;5074084;28;20270;-75
2021/04/27 00:06:05;;;;;;;;;;;;;;;;;;5058288;28;20015;-75
2021/04/27 00:08:30;;;;;;;;;;;;;;;;;;5074362;28;19938;-75
2021/04/27 00:10:56;;;;;;;;;;;;;;;;;;5074262;28;19919;-75
2021/04/27 00:13:21;;;;;;;;;;;;;;;;;;5057770;28;20011;-75
2021/04/27 00:15:47;;;;;;;;;;;;;;;;;;5058122;28;19912;-75
2021/04/27 00:18:12;;;;;;;;;;;;;;;;;;5073688;28;19955;-76
2021/04/27 00:20:37;;;;;;;;;;;;;;;;;;5074861;28;19966;-75
2021/04/27 00:23:03;;;;;;;;;;;;;;;;;;5057896;28;19916;-75
2021/04/27 00:25:28;;;;;;;;;;;;;;;;;;5057718;28;19912;-75
2021/04/27 00:27:55;;;;;;;;;;;;;;;;;;5057236;28;19927;-75
2021/04/27 00:30:20;;;;;;;;;;;;;;;;;;5074658;28;19912;-75
2021/04/27 00:32:46;;;;;;;;;;;;;;;;;;5057289;28;20311;-75
2021/04/27 00:35:11;;;;;;;;;;;;;;;;;;5057553;28;19912;-76
2021/04/27 00:37:37;;;;;;;;;;;;;;;;;;5074318;28;19912;-76
2021/04/27 00:40:03;;;;;;;;;;;;;;;;;;5074131;28;19972;-76
2021/04/27 00:42:36;;;;;;;;;;;;;;;;;;5074225;28;19912;-75
2021/04/27 00:45:01;;;;;;;;;;;;;;;;;;5092216;28;20030;-75
2021/04/27 00:47:27;;;;;;;;;;;;;;;;;;5091970;28;19967;-75
2021/04/27 00:49:52;;;;;;;;;;;;;;;;;;5074482;28;19920;-75
2021/04/27 00:52:18;;;;;;;;;;;;;;;;;;5040872;28;20004;-75
2021/04/27 00:54:43;;;;;;;;;;;;;;;;;;5074280;28;19951;-75
2021/04/27 00:57:09;;;;;;;;;;;;;;;;;;5055935;28;19923;-75
2021/04/27 00:59:35;;;;;;;;;;;;;;;;;;5056950;28;20458;-75
2021/04/27 01:02:00;;;;;;;;;;;;;;;;;;5039031;28;20334;-75
2021/04/27 01:04:26;;;;;;;;;;;;;;;;;;5072236;28;20270;-75
2021/04/27 01:06:51;;;;;;;;;;;;;;;;;;5053769;28;19955;-75
2021/04/27 01:09:20;;;;;;;;;;;;;;;;;;5053523;28;19913;-75
2021/04/27 01:12:05;;;;;;;;;;;;;;;;;;5053987;28;19912;-75
2021/04/27 01:14:35;;;;;;;;;;;;;;;;;;5053486;28;19912;-75
2021/04/27 01:17:04;;;;;;;;;;;;;;;;;;5053776;28;19916;-75
2021/04/27 01:19:59;;;;;;;;;;;;;;;;;;5062544;28;19941;-75
2021/04/27 01:22:45;;;;;;;;;;;;;;;;;;5054271;28;19943;-75
2021/04/27 01:25:10;;;;;;;;;;;;;;;;;;5077449;28;19912;-75
2021/04/27 01:27:36;;;;;;;;;;;;;;;;;;5077517;28;19919;-75
2021/04/27 01:30:04;;;;;;;;;;;;;;;;;;5077845;28;19961;-75
2021/04/27 01:32:29;;;;;;;;;;;;;;;;;;5077688;28;19916;-75
2021/04/27 01:34:54;;;;;;;;;;;;;;;;;;5077601;28;19912;-75
2021/04/27 01:37:20;;;;;;;;;;;;;;;;;;5060688;28;19912;-75
2021/04/27 01:39:45;;;;;;;;;;;;;;;;;;5076970;28;20006;-75
2021/04/27 01:42:10;;;;;;;;;;;;;;;;;;5060570;28;20278;-76
2021/04/27 01:44:36;;;;;;;;;;;;;;;;;;5077099;28;19929;-75
2021/04/27 01:47:02;;;;;;;;;;;;;;;;;;5060388;28;20006;-75
2021/04/27 01:49:27;;;;;;;;;;;;;;;;;;5076999;28;19921;-75
2021/04/27 01:51:53;;;;;;;;;;;;;;;;;;5037617;28;19981;-75
2021/04/27 01:54:22;;;;;;;;;;;;;;;;;;5057159;28;19924;-75
2021/04/27 01:56:47;;;;;;;;;;;;;;;;;;5030033;28;19923;-75
2021/04/27 01:59:12;;;;;;;;;;;;;;;;;;5039884;28;19942;-75
2021/04/27 02:01:38;;;;;;;;;;;;;;;;;;5051024;28;19919;-75
2021/04/27 02:04:03;;;;;;;;;;;;;;;;;;5073564;28;19920;-75
2021/04/27 02:06:28;;;;;;;;;;;;;;;;;;5073637;28;19927;-75
2021/04/27 02:08:59;;;;;;;;;;;;;;;;;;5073490;28;20000;-75
2021/04/27 02:11:24;;;;;;;;;;;;;;;;;;5040039;28;19920;-75
2021/04/27 02:13:49;;;;;;;;;;;;;;;;;;5073121;28;19966;-75
2021/04/27 02:16:15;;;;;;;;;;;;;;;;;;5073446;28;19940;-75
2021/04/27 02:18:43;;;;;;;;;;;;;;;;;;5075562;28;19916;-75
2021/04/27 02:21:09;;;;;;;;;;;;;;;;;;5043248;28;20384;-75
2021/04/27 02:23:34;;;;;;;;;;;;;;;;;;5060037;28;19916;-75
2021/04/27 02:25:59;;;;;;;;;;;;;;;;;;5094409;28;19918;-75
2021/04/27 02:28:25;;;;;;;;;;;;;;;;;;5076556;28;19972;-75
2021/04/27 02:30:50;;;;;;;;;;;;;;;;;;5076507;28;19959;-75
2021/04/27 02:33:16;;;;;;;;;;;;;;;;;;5059782;28;19919;-75
2021/04/27 02:35:41;;;;;;;;;;;;;;;;;;5059414;28;19959;-75
2021/04/27 02:38:07;;;;;;;;;;;;;;;;;;5059235;28;19970;-76
2021/04/27 02:40:32;;;;;;;;;;;;;;;;;;5076352;28;19912;-75
2021/04/27 02:42:58;;;;;;;;;;;;;;;;;;5042609;28;19912;-75
2021/04/27 02:45:32;;;;;;;;;;;;;;;;;;5074855;28;19916;-76
2021/04/27 02:48:05;;;;;;;;;;;;;;;;;;5040642;28;19923;-75
2021/04/27 02:50:30;;;;;;;;;;;;;;;;;;5039609;28;20401;-75
2021/04/27 02:52:56;;;;;;;;;;;;;;;;;;5055761;28;19962;-75
2021/04/27 02:55:21;;;;;;;;;;;;;;;;;;5055691;28;20354;-75
2021/04/27 02:57:46;;;;;;;;;;;;;;;;;;5041158;28;19913;-75
2021/04/27 03:00:12;;;;;;;;;;;;;;;;;;5058277;28;19920;-75
2021/04/27 03:02:37;;;;;;;;;;;;;;;;;;5059101;28;19977;-75
2021/04/27 03:05:03;;;;;;;;;;;;;;;;;;5042558;28;20392;-75
2021/04/27 03:07:30;;;;;;;;;;;;;;;;;;5059427;28;19912;-75
2021/04/27 03:09:56;;;;;;;;;;;;;;;;;;5058938;28;19912;-75
2021/04/27 03:12:21;;;;;;;;;;;;;;;;;;5058655;28;20007;-75
2021/04/27 03:14:49;;;;;;;;;;;;;;;;;;5059520;28;19912;-75
2021/04/27 03:17:14;;;;;;;;;;;;;;;;;;5075468;28;19924;-75
2021/04/27 03:19:39;;;;;;;;;;;;;;;;;;5058986;28;19916;-75
2021/04/27 03:22:05;;;;;;;;;;;;;;;;;;5075620;28;20010;-75
2021/04/27 03:24:30;;;;;;;;;;;;;;;;;;5093625;28;19912;-75
2021/04/27 03:26:55;;;;;;;;;;;;;;;;;;5075222;28;19955;-75
2021/04/27 03:29:21;;;;;;;;;;;;;;;;;;5058441;28;20028;-75
2021/04/27 03:31:46;;;;;;;;;;;;;;;;;;5075150;28;19912;-75
2021/04/27 03:34:11;;;;;;;;;;;;;;;;;;5058818;28;19916;-75
2021/04/27 03:36:36;;;;;;;;;;;;;;;;;;5075346;28;20012;-75
2021/04/27 03:39:02;;;;;;;;;;;;;;;;;;5074899;28;19920;-75
2021/04/27 03:41:28;;;;;;;;;;;;;;;;;;5070200;28;19940;-75
2021/04/27 03:43:53;;;;;;;;;;;;;;;;;;5038615;28;20374;-75
2021/04/27 03:46:18;;;;;;;;;;;;;;;;;;5054359;28;19924;-75
2021/04/27 03:48:44;;;;;;;;;;;;;;;;;;5055080;28;19920;-75
2021/04/27 03:51:09;;;;;;;;;;;;;;;;;;5038261;28;19928;-75
2021/04/27 03:53:34;;;;;;;;;;;;;;;;;;5054590;28;19921;-75
2021/04/27 03:56:00;;;;;;;;;;;;;;;;;;5074986;28;20003;-75
2021/04/27 03:58:25;;;;;;;;;;;;;;;;;;5074829;28;20374;-75
2021/04/27 04:00:50;;;;;;;;;;;;;;;;;;5066395;28;19912;-75
2021/04/27 04:03:15;;;;;;;;;;;;;;;;;;5087729;28;20028;-75
2021/04/27 04:05:41;;;;;;;;;;;;;;;;;;5088346;28;19913;-76
2021/04/27 04:08:06;;;;;;;;;;;;;;;;;;5088262;28;19951;-74
2021/04/27 04:10:31;;;;;;;;;;;;;;;;;;5054318;28;19919;-75
2021/04/27 04:12:57;;;;;;;;;;;;;;;;;;5088209;28;20347;-75
2021/04/27 04:15:22;;;;;;;;;;;;;;;;;;5070992;28;20083;-74
2021/04/27 04:17:47;;;;;;;;;;;;;;;;;;5087875;28;19916;-75
2021/04/27 04:20:17;;;;;;;;;;;;;;;;;;5091480;28;19959;-75
2021/04/27 04:22:42;;;;;;;;;;;;;;;;;;5054085;28;19999;-75
2021/04/27 04:25:08;;;;;;;;;;;;;;;;;;5037570;28;20003;-74
2021/04/27 04:27:33;;;;;;;;;;;;;;;;;;5054262;28;19923;-74
2021/04/27 04:29:58;;;;;;;;;;;;;;;;;;5054286;28;19916;-74
2021/04/27 04:32:24;;;;;;;;;;;;;;;;;;5037507;28;19963;-75
2021/04/27 04:34:49;;;;;;;;;;;;;;;;;;5030433;28;19966;-75
2021/04/27 04:37:14;;;;;;;;;;;;;;;;;;5037834;28;19916;-75
2021/04/27 04:39:40;;;;;;;;;;;;;;;;;;5037129;28;20279;-75
2021/04/27 04:42:05;;;;;;;;;;;;;;;;;;5037676;28;19963;-76
2021/04/27 04:44:30;;;;;;;;;;;;;;;;;;5037790;28;19944;-75
2021/04/27 04:46:56;;;;;;;;;;;;;;;;;;5037651;28;20351;-76
2021/04/27 04:49:24;;;;;;;;;;;;;;;;;;5054260;28;20314;-75
2021/04/27 04:51:50;;;;;;;;;;;;;;;;;;5037391;28;19916;-75
2021/04/27 04:54:15;;;;;;;;;;;;;;;;;;5037523;28;20447;-75
2021/04/27 04:56:40;;;;;;;;;;;;;;;;;;5062286;28;19912;-75
2021/04/27 04:59:06;;;;;;;;;;;;;;;;;;5078058;28;19912;-75
2021/04/27 05:01:31;;;;;;;;;;;;;;;;;;5082458;28;19927;-75
2021/04/27 05:03:56;;;;;;;;;;;;;;;;;;5057888;28;19912;-76
2021/04/27 05:06:22;;;;;;;;;;;;;;;;;;5091468;28;19912;-76
2021/04/27 05:08:52;;;;;;;;;;;;;;;;;;5091219;28;19918;-76
2021/04/27 05:11:20;;;;;;;;;;;;;;;;;;5090077;28;20006;-76
2021/04/27 05:13:45;;;;;;;;;;;;;;;;;;5075615;28;19954;-76
2021/04/27 05:16:10;;;;;;;;;;;;;;;;;;5055169;28;19955;-77
2021/04/27 05:18:36;;;;;;;;;;;;;;;;;;5090170;28;19970;-77
2021/04/27 05:21:03;;;;;;;;;;;;;;;;;;5042963;28;20412;-77
2021/04/27 05:23:28;;;;;;;;;;;;;;;;;;5078147;28;20284;-77
2021/04/27 05:25:54;;;;;;;;;;;;;;;;;;5061029;28;19934;-76
2021/04/27 05:28:19;;;;;;;;;;;;;;;;;;5077785;28;20419;-77
2021/04/27 05:30:44;;;;;;;;;;;;;;;;;;5073520;28;19932;-77
2021/04/27 05:33:10;;;;;;;;;;;;;;;;;;5057657;28;19920;-77
2021/04/27 05:35:35;;;;;;;;;;;;;;;;;;5040490;28;20461;-77
2021/04/27 05:38:00;;;;;;;;;;;;;;;;;;5040594;28;19970;-77
2021/04/27 05:40:26;;;;;;;;;;;;;;;;;;5040564;28;19963;-77
2021/04/27 05:42:51;;;;;;;;;;;;;;;;;;5040486;28;19913;-77
2021/04/27 05:45:16;;;;;;;;;;;;;;;;;;5051769;28;20293;-77
2021/04/27 05:47:42;;;;;;;;;;;;;;;;;;5044244;28;19982;-77
2021/04/27 05:50:07;;;;;;;;;;;;;;;;;;5080508;28;20010;-77
2021/04/27 05:52:33;;;;;;;;;;;;;;;;;;5060510;28;19920;-77
2021/04/27 05:54:58;;;;;;;;;;;;;;;;;;5060146;28;19916;-77
2021/04/27 05:57:23;;;;;;;;;;;;;;;;;;5062150;28;19916;-77
2021/04/27 05:59:49;;;;;;;;;;;;;;;;;;5023408;28;19917;-78
2021/04/27 06:02:15;;;;;;;;;;;;;;;;;;5040991;28;19920;-77
2021/04/27 06:04:40;;;;;;;;;;;;;;;;;;5077196;28;19965;-77
2021/04/27 06:07:08;;;;;;;;;;;;;;;;;;5077154;28;19912;-77
2021/04/27 06:09:33;;;;;;;;;;;;;;;;;;5042815;28;19955;-76
2021/04/27 06:11:59;;;;;;;;;;;;;;;;;;5059771;28;19956;-76
2021/04/27 06:14:24;;;;;;;;;;;;;;;;;;5076486;28;20073;-76
2021/04/27 06:16:49;;;;;;;;;;;;;;;;;;5060362;28;19920;-77
2021/04/27 06:19:14;;;;;;;;;;;;;;;;;;5059289;28;19920;-76
2021/04/27 06:21:41;;;;;;;;;;;;;;;;;;5056265;28;19962;-77
2021/04/27 06:24:07;;;;;;;;;;;;;;;;;;5056599;28;19913;-76
2021/04/27 06:26:32;;;;;;;;;;;;;;;;;;5072971;28;20435;-77
2021/04/27 06:28:57;;;;;;;;;;;;;;;;;;5072954;28;19967;-77
2021/04/27 06:31:22;;;;;;;;;;;;;;;;;;5073134;28;19912;-76
2021/04/27 06:33:48;;;;;;;;;;;;;;;;;;5056496;28;19935;-79
2021/04/27 06:36:14;;;;;;;;;;;;;;;;;;5056531;28;19923;-78
2021/04/27 06:38:40;;;;;;;;;;;;;;;;;;5072839;28;19916;-78
2021/04/27 06:41:05;;;;;;;;;;;;;;;;;;5072692;28;20260;-77
2021/04/27 06:43:30;;;;;;;;;;;;;;;;;;5039554;28;19912;-77
2021/04/27 06:45:56;;;;;;;;;;;;;;;;;;5059267;28;19912;-77
2021/04/27 06:48:21;;;;;;;;;;;;;;;;;;5059531;28;20390;-77
2021/04/27 06:50:46;;;;;;;;;;;;;;;;;;5076355;28;19912;-77
2021/04/27 06:53:11;;;;;;;;;;;;;;;;;;5059096;28;19923;-77
2021/04/27 06:55:37;;;;;;;;;;;;;;;;;;5056111;28;19923;-77
2021/04/27 06:58:03;;;;;;;;;;;;;;;;;;5072366;28;19963;-77
2021/04/27 07:00:28;;;;;;;;;;;;;;;;;;5055122;28;19916;-77
2021/04/27 07:02:54;;;;;;;;;;;;;;;;;;5053198;28;19974;-77
2021/04/27 07:05:19;;;;;;;;;;;;;;;;;;5053238;28;20361;-77
2021/04/27 07:07:44;;;;;;;;;;;;;;;;;;5054729;28;19963;-77
2021/04/27 07:10:10;;;;;;;;;;;;;;;;;;5055494;28;20026;-78
2021/04/27 07:12:35;;;;;;;;;;;;;;;;;;5055557;28;19962;-78
2021/04/27 07:15:00;;;;;;;;;;;;;;;;;;5055609;28;20358;-77
2021/04/27 07:17:26;;;;;;;;;;;;;;;;;;5038405;28;19920;-79
2021/04/27 07:19:51;;;;;;;;;;;;;;;;;;5058503;28;19916;-78
2021/04/27 07:22:16;;;;;;;;;;;;;;;;;;5054287;28;19912;-79
2021/04/27 07:24:42;;;;;;;;;;;;;;;;;;5055138;28;19919;-79
2021/04/27 07:27:07;;;;;;;;;;;;;;;;;;5038135;28;19912;-80
2021/04/27 07:29:32;;;;;;;;;;;;;;;;;;5021266;28;20018;-78
2021/04/27 07:31:58;;;;;;;;;;;;;;;;;;5021050;28;20006;-79
2021/04/27 07:34:23;;;;;;;;;;;;;;;;;;5055240;28;19917;-79
2021/04/27 07:36:48;;;;;;;;;;;;;;;;;;5038745;28;19916;-79
2021/04/27 07:39:14;;;;;;;;;;;;;;;;;;5038003;28;20011;-78
2021/04/27 07:41:39;;;;;;;;;;;;;;;;;;5038335;28;19916;-79
2021/04/27 07:44:05;;;;;;;;;;;;;;;;;;5055778;28;20007;-78
2021/04/27 07:46:30;;;;;;;;;;;;;;;;;;5074806;28;20007;-78
2021/04/27 07:48:55;;;;;;;;;;;;;;;;;;5040657;28;20431;-79
2021/04/27 07:51:21;;;;;;;;;;;;;;;;;;5074948;28;20366;-77
2021/04/27 07:53:46;;;;;;;;;;;;;;;;;;5074697;28;19994;-79
2021/04/27 07:56:11;;;;;;;;;;;;;;;;;;5057917;28;19944;-78
2021/04/27 07:58:37;;;;;;;;;;;;;;;;;;5058017;28;19912;-79
2021/04/27 08:01:03;;;;;;;;;;;;;;;;;;5074570;28;19919;-79
2021/04/27 08:03:28;;;;;;;;;;;;;;;;;;5074491;28;19919;-76
2021/04/27 08:05:53;;;;;;;;;;;;;;;;;;5074940;28;19912;-76
2021/04/27 08:08:19;;;;;;;;;;;;;;;;;;5057703;28;19916;-77
2021/04/27 08:10:45;;;;;;;;;;;;;;;;;;5057605;28;19962;-76
2021/04/27 08:13:10;;;;;;;;;;;;;;;;;;5092170;28;19916;-76
2021/04/27 08:15:35;;;;;;;;;;;;;;;;;;5074118;28;19912;-76
2021/04/27 08:18:01;;;;;;;;;;;;;;;;;;5074251;28;19916;-75
2021/04/27 08:20:27;;;;;;;;;;;;;;;;;;5092767;28;19923;-77
2021/04/27 08:22:52;;;;;;;;;;;;;;;;;;5054625;28;19912;-76
2021/04/27 08:25:18;;;;;;;;;;;;;;;;;;5054209;28;20101;-76
2021/04/27 08:27:44;;;;;;;;;;;;;;;;;;5021110;28;19955;-76
2021/04/27 08:30:10;;;;;;;;;;;;;;;;;;5054186;28;20345;-76
2021/04/27 08:32:35;;;;;;;;;;;;;;;;;;5053992;28;20383;-76
2021/04/27 08:35:02;;;;;;;;;;;;;;;;;;5037773;28;19919;-76
2021/04/27 08:37:27;;;;;;;;;;;;;;;;;;5037721;28;20314;-76
2021/04/27 08:39:53;;;;;;;;;;;;;;;;;;5036999;28;19916;-76
2021/04/27 08:42:18;;;;;;;;;;;;;;;;;;5060144;28;19966;-76
2021/04/27 08:44:43;;;;;;;;;;;;;;;;;;5036239;28;19916;-78
2021/04/27 08:47:09;;;;;;;;;;;;;;;;;;5054006;28;20293;-77
2021/04/27 08:49:34;;;;;;;;;;;;;;;;;;5054147;28;19981;-79
2021/04/27 08:51:59;;;;;;;;;;;;;;;;;;5054006;28;19921;-81
2021/04/27 08:54:25;;;;;;;;;;;;;;;;;;5054264;28;19947;-79
2021/04/27 08:56:50;;;;;;;;;;;;;;;;;;5037261;28;19912;-79
2021/04/27 08:59:15;;;;;;;;;;;;;;;;;;5053363;28;19912;-78
2021/04/27 09:01:41;;;;;;;;;;;;;;;;;;5054410;28;19912;-76
2021/04/27 09:04:06;;;;;;;;;;;;;;;;;;5053781;28;20389;-77
2021/04/27 09:06:31;;;;;;;;;;;;;;;;;;5037852;28;20282;-76
2021/04/27 09:08:58;;;;;;;;;;;;;;;;;;5053721;28;19999;-76
2021/04/27 09:11:31;;;;;;;;;;;;;;;;;;5037034;28;19920;-77
2021/04/27 09:14:06;;;;;;;;;;;;;;;;;;5053806;28;19962;-77
2021/04/27 09:16:31;;;;;;;;;;;;;;;;;;5053715;28;19916;-77
2021/04/27 09:18:57;;;;;;;;;;;;;;;;;;5057065;28;19923;-76
2021/04/27 09:21:30;;;;;;;;;;;;;;;;;;5053472;28;20305;-77
2021/04/27 09:23:55;;;;;;;;;;;;;;;;;;5070425;28;19912;-76
2021/04/27 09:26:21;;;;;;;;;;;;;;;;;;5037006;28;19919;-76
2021/04/27 09:28:50;;;;;;;;;;;;;;;;;;5053591;28;20010;-77
2021/04/27 09:31:22;;;;;;;;;;;;;;;;;;5070228;28;20011;-77
2021/04/27 09:33:47;;;;;;;;;;;;;;;;;;5071752;28;20293;-78
2021/04/27 09:36:22;;;;;;;;;;;;;;;;;;5069800;28;19919;-78
2021/04/27 09:38:51;;;;;;;;;;;;;;;;;;5036704;28;19924;-78
2021/04/27 09:41:16;;;;;;;;;;;;;;;;;;5053313;28;19920;-78
2021/04/27 09:43:44;;;;;;;;;;;;;;;;;;5069921;28;19913;-78
2021/04/27 09:46:16;;;;;;;;;;;;;;;;;;5044278;28;19917;-78
2021/04/27 09:48:45;;;;;;;;;;;;;;;;;;5090554;28;19927;-79
2021/04/27 09:51:13;;;;;;;;;;;;;;;;;;5056717;28;19917;-79
2021/04/27 09:53:43;;;;;;;;;;;;;;;;;;5075102;28;19962;-78
2021/04/27 09:56:08;;;;;;;;;;;;;;;;;;5073796;28;19917;-78
2021/04/27 09:58:34;;;;;;;;;;;;;;;;;;5073479;28;19943;-79
2021/04/27 10:00:59;;;;;;;;;;;;;;;;;;5056840;28;19920;-79
2021/04/27 10:03:25;;;;;;;;;;;;;;;;;;5073571;28;20286;-80
2021/04/27 10:05:50;;;;;;;;;;;;;;;;;;5073449;28;20405;-79
2021/04/27 10:08:15;;;;;;;;;;;;;;;;;;5073335;28;19913;-79
2021/04/27 10:10:41;;;;;;;;;;;;;;;;;;5073634;28;19913;-80
2021/04/27 10:13:08;;;;;;;;;;;;;;;;;;5073108;28;19912;-80
2021/04/27 10:15:34;;;;;;;;;;;;;;;;;;5073286;28;19920;-81
2021/04/27 10:18:00;;;;;;;;;;;;;;;;;;5072557;28;19927;-81
2021/04/27 10:20:25;;;;;;;;;;;;;;;;;;5059848;28;19960;-81
2021/04/27 10:22:50;;;;;;;;;;;;;;;;;;5076858;28;19918;-81
2021/04/27 10:25:26;;;;;;;;;;;;;;;;;;5043100;28;19972;-81
2021/04/27 10:27:55;;;;;;;;;;;;;;;;;;5076158;28;20281;-81
2021/04/27 10:30:23;;;;;;;;;;;;;;;;;;5053176;28;19924;-81
2021/04/27 10:33:00;;;;;;;;;;;;;;;;;;5055116;28;19961;-80
2021/04/27 10:35:26;;;;;;;;;;;;;;;;;;5039165;28;19923;-81
2021/04/27 10:38:24;;;;;;;;;;;;;;;;;;5039314;28;19995;-81
2021/04/27 10:40:52;;;;;;;;;;;;;;;;;;5012099;28;19919;-82
2021/04/27 10:43:24;;;;;;;;;;;;;;;;;;5039229;28;19916;-81
2021/04/27 10:45:50;;;;;;;;;;;;;;;;;;5055355;28;19996;-81
2021/04/27 10:48:25;;;;;;;;;;;;;;;;;;5023075;28;20004;-80
2021/04/27 10:50:50;;;;;;;;;;;;;;;;;;5039641;28;19921;-80
2021/04/27 10:53:32;;;;;;;;;;;;;;;;;;5022442;28;20400;-81
2021/04/27 10:55:57;;;;;;;;;;;;;;;;;;5039007;28;20380;-80
2021/04/27 10:58:42;;;;;;;;;;;;;;;;;;5055951;28;20019;-80
2021/04/27 11:01:20;;;;;;;;;;;;;;;;;;5055757;28;19963;-81
2021/04/27 11:03:49;;;;;;;;;;;;;;;;;;5039415;28;19919;-81
2021/04/27 11:06:15;;;;;;;;;;;;;;;;;;5022541;28;20096;-80
2021/04/27 11:08:43;;;;;;;;;;;;;;;;;;5055935;28;19940;-80
2021/04/27 11:11:18;;;;;;;;;;;;;;;;;;5055400;28;19920;-80
2021/04/27 11:13:43;;;;;;;;;;;;;;;;;;5072072;28;19912;-81
2021/04/27 11:16:24;;;;;;;;;;;;;;;;;;5055405;28;19920;-80
2021/04/27 11:18:49;;;;;;;;;;;;;;;;;;5025914;28;19920;-81
2021/04/27 11:21:15;;;;;;;;;;;;;;;;;;5038816;28;20302;-80
2021/04/27 11:23:44;;;;;;;;;;;;;;;;;;5038693;28;19959;-80
2021/04/27 11:26:28;;;;;;;;;;;;;;;;;;5022332;28;19916;-80
2021/04/27 11:28:54;;;;;;;;;;;;;;;;;;5055124;28;19963;-80
2021/04/27 11:31:20;;;;;;;;;;;;;;;;;;5055812;28;19920;-80
2021/04/27 11:33:53;;;;;;;;;;;;;;;;;;5055405;28;19920;-80
2021/04/27 11:36:32;;;;;;;;;;;;;;;;;;5038708;28;19919;-80
2021/04/27 11:38:57;;;;;;;;;;;;;;;;;;5038255;28;20271;-81
2021/04/27 11:41:23;;;;;;;;;;;;;;;;;;5021518;28;19975;-81
2021/04/27 11:44:08;;;;;;;;;;;;;;;;;;5038506;28;19973;-80
2021/04/27 11:46:51;;;;;;;;;;;;;;;;;;5070117;28;19928;-81
2021/04/27 11:49:16;;;;;;;;;;;;;;;;;;5038397;28;19916;-80
2021/04/27 11:51:43;;;;;;;;;;;;;;;;;;5055138;28;19920;-80
2021/04/27 11:54:09;;;;;;;;;;;;;;;;;;5054728;28;19924;-81
2021/04/27 11:56:49;;;;;;;;;;;;;;;;;;5038022;28;19913;-81
2021/04/27 11:59:18;;;;;;;;;;;;;;;;;;5038006;28;19927;-81
2021/04/27 12:01:43;;;;;;;;;;;;;;;;;;5055108;28;19974;-80
2021/04/27 12:04:09;;;;;;;;;;;;;;;;;;5038061;28;19941;-81
2021/04/27 12:06:34;;;;;;;;;;;;;;;;;;5054467;28;19923;-81
2021/04/27 12:09:01;;;;;;;;;;;;;;;;;;5037362;28;19916;-81
2021/04/27 12:11:33;;;;;;;;;;;;;;;;;;5037447;28;20441;-81
2021/04/27 12:13:58;;;;;;;;;;;;;;;;;;5037801;28;19919;-80
2021/04/27 12:16:30;;;;;;;;;;;;;;;;;;5054833;28;19917;-80
2021/04/27 12:18:58;;;;;;;;;;;;;;;;;;5057061;28;19942;-80
2021/04/27 12:21:27;;;;;;;;;;;;;;;;;;5073827;28;19912;-81
2021/04/27 12:24:09;;;;;;;;;;;;;;;;;;5041363;28;19963;-81
2021/04/27 12:26:35;;;;;;;;;;;;;;;;;;5057475;28;20265;-80
2021/04/27 12:29:00;;;;;;;;;;;;;;;;;;5057602;28;19961;-80
2021/04/27 12:31:25;;;;;;;;;;;;;;;;;;5074249;28;19923;-80
2021/04/27 12:33:57;;;;;;;;;;;;;;;;;;5057796;28;19966;-80
2021/04/27 12:36:36;;;;;;;;;;;;;;;;;;5057566;28;19916;-80
2021/04/27 12:39:03;;;;;;;;;;;;;;;;;;5040744;28;19973;-80
2021/04/27 12:41:38;;;;;;;;;;;;;;;;;;5057460;28;19957;-80
2021/04/27 12:44:22;;;;;;;;;;;;;;;;;;5073747;28;19923;-80
2021/04/27 12:46:48;;;;;;;;;;;;;;;;;;5070571;28;19923;-80
2021/04/27 12:49:13;;;;;;;;;;;;;;;;;;5037661;28;19924;-80
2021/04/27 12:51:39;;;;;;;;;;;;;;;;;;5037470;28;19912;-80
2021/04/27 12:54:04;;;;;;;;;;;;;;;;;;5054587;28;19916;-80
2021/04/27 12:56:29;;;;;;;;;;;;;;;;;;5020645;28;19917;-80
2021/04/27 12:58:58;;;;;;;;;;;;;;;;;;5054123;28;20366;-80
2021/04/27 13:01:23;;;;;;;;;;;;;;;;;;5037412;28;20003;-80
2021/04/27 13:03:49;;;;;;;;;;;;;;;;;;5037574;28;20028;-80
2021/04/27 13:06:41;;;;;;;;;;;;;;;;;;5037302;28;19940;-79
2021/04/27 13:09:07;;;;;;;;;;;;;;;;;;5065974;28;19949;-80
2021/04/27 13:11:32;;;;;;;;;;;;;;;;;;5053330;28;19935;-80
2021/04/27 13:14:17;;;;;;;;;;;;;;;;;;5055645;28;20370;-80
2021/04/27 13:16:42;;;;;;;;;;;;;;;;;;5072308;28;19927;-78
2021/04/27 13:19:07;;;;;;;;;;;;;;;;;;5055038;28;20301;-79
2021/04/27 13:21:33;;;;;;;;;;;;;;;;;;5055191;28;19917;-78
2021/04/27 13:24:11;;;;;;;;;;;;;;;;;;5074408;28;19920;-77
2021/04/27 13:26:36;;;;;;;;;;;;;;;;;;5045977;28;19949;-78
2021/04/27 13:29:01;;;;;;;;;;;;;;;;;;5076848;28;20281;-80
2021/04/27 13:31:27;;;;;;;;;;;;;;;;;;5077262;28;19960;-78
2021/04/27 13:33:52;;;;;;;;;;;;;;;;;;5087474;28;20373;-78
2021/04/27 13:36:19;;;;;;;;;;;;;;;;;;5061511;28;19955;-80
2021/04/27 13:38:45;;;;;;;;;;;;;;;;;;5060953;28;19916;-80
2021/04/27 13:41:10;;;;;;;;;;;;;;;;;;5060493;28;20247;-79
2021/04/27 13:43:46;;;;;;;;;;;;;;;;;;5055922;28;19924;-79
2021/04/27 13:46:15;;;;;;;;;;;;;;;;;;5060274;28;19912;-80
2021/04/27 13:48:40;;;;;;;;;;;;;;;;;;5060292;28;20451;-80
2021/04/27 13:51:06;;;;;;;;;;;;;;;;;;5086259;28;19999;-79
2021/04/27 13:53:32;;;;;;;;;;;;;;;;;;5056875;28;19916;-79
2021/04/27 13:55:57;;;;;;;;;;;;;;;;;;5024124;28;20027;-79
2021/04/27 13:58:23;;;;;;;;;;;;;;;;;;5023298;28;19912;-79
2021/04/27 14:00:48;;;;;;;;;;;;;;;;;;5058335;28;19916;-78
2021/04/27 14:03:14;;;;;;;;;;;;;;;;;;5041213;28;19920;-79
2021/04/27 14:05:39;;;;;;;;;;;;;;;;;;5057045;28;19912;-80
2021/04/27 14:08:05;;;;;;;;;;;;;;;;;;5055979;28;20332;-80
2021/04/27 14:10:30;;;;;;;;;;;;;;;;;;5039836;28;19920;-79
2021/04/27 14:12:56;;;;;;;;;;;;;;;;;;5056492;28;19916;-80
2021/04/27 14:15:22;;;;;;;;;;;;;;;;;;5039929;28;20378;-79
2021/04/27 14:17:47;;;;;;;;;;;;;;;;;;5056313;28;20386;-79
2021/04/27 14:20:14;;;;;;;;;;;;;;;;;;5056833;28;19959;-80
2021/04/27 14:22:39;;;;;;;;;;;;;;;;;;5074025;28;19916;-79
2021/04/27 14:25:05;;;;;;;;;;;;;;;;;;5076844;28;20022;-79
2021/04/27 14:27:30;;;;;;;;;;;;;;;;;;5076291;28;19924;-80
2021/04/27 14:29:56;;;;;;;;;;;;;;;;;;5054572;28;19912;-79
2021/04/27 14:32:21;;;;;;;;;;;;;;;;;;5046826;28;19916;-78
2021/04/27 14:34:46;;;;;;;;;;;;;;;;;;5042902;28;20007;-80
2021/04/27 14:37:12;;;;;;;;;;;;;;;;;;5059266;28;19919;-79
2021/04/27 14:39:37;;;;;;;;;;;;;;;;;;5036240;28;20111;-80
2021/04/27 14:42:05;;;;;;;;;;;;;;;;;;5058075;28;19913;-79
2021/04/27 14:44:31;;;;;;;;;;;;;;;;;;5076152;28;20277;-79
2021/04/27 14:46:56;;;;;;;;;;;;;;;;;;5059585;28;19920;-80
2021/04/27 14:49:21;;;;;;;;;;;;;;;;;;5042694;28;19923;-79
2021/04/27 14:51:47;;;;;;;;;;;;;;;;;;5075967;28;19916;-78
2021/04/27 14:54:13;;;;;;;;;;;;;;;;;;5059003;28;19916;-79
2021/04/27 14:56:38;;;;;;;;;;;;;;;;;;5059086;28;20435;-79
2021/04/27 14:59:03;;;;;;;;;;;;;;;;;;5059151;28;19922;-78
2021/04/27 15:01:29;;;;;;;;;;;;;;;;;;5057962;28;19923;-78
2021/04/27 15:03:54;;;;;;;;;;;;;;;;;;5057388;28;19928;-79
2021/04/27 15:06:20;;;;;;;;;;;;;;;;;;5065182;28;19923;-79
2021/04/27 15:08:45;;;;;;;;;;;;;;;;;;5075525;28;19970;-79
2021/04/27 15:11:10;;;;;;;;;;;;;;;;;;5069734;28;19920;-78
2021/04/27 15:13:36;;;;;;;;;;;;;;;;;;5070283;28;19919;-79
2021/04/27 15:16:01;;;;;;;;;;;;;;;;;;5058767;28;19952;-78
2021/04/27 15:18:26;;;;;;;;;;;;;;;;;;5058797;28;20014;-78
2021/04/27 15:20:52;;;;;;;;;;;;;;;;;;5075194;28;20285;-78
2021/04/27 15:23:17;;;;;;;;;;;;;;;;;;5055205;28;19923;-78
2021/04/27 15:25:42;;;;;;;;;;;;;;;;;;5075595;28;19919;-78
2021/04/27 15:28:08;;;;;;;;;;;;;;;;;;5061773;28;20320;-78
2021/04/27 15:30:33;;;;;;;;;;;;;;;;;;5075101;28;19916;-78
2021/04/27 15:33:00;;;;;;;;;;;;;;;;;;5074941;28;20411;-77
2021/04/27 15:35:26;;;;;;;;;;;;;;;;;;5093256;28;19920;-78
2021/04/27 15:37:51;;;;;;;;;;;;;;;;;;5057566;28;19965;-77
2021/04/27 15:40:21;;;;;;;;;;;;;;;;;;5053657;28;19961;-79
2021/04/27 15:42:46;;;;;;;;;;;;;;;;;;5040729;28;19928;-79
2021/04/27 15:45:14;;;;;;;;;;;;;;;;;;5061604;28;20266;-78
2021/04/27 15:47:40;;;;;;;;;;;;;;;;;;5073962;28;19942;-77
2021/04/27 15:50:06;;;;;;;;;;;;;;;;;;5038289;28;20406;-77
2021/04/27 15:52:31;;;;;;;;;;;;;;;;;;5063433;28;19912;-77
2021/04/27 15:54:56;;;;;;;;;;;;;;;;;;5071666;28;20344;-77
2021/04/27 15:57:22;;;;;;;;;;;;;;;;;;5074714;28;19919;-77
2021/04/27 15:59:47;;;;;;;;;;;;;;;;;;5057852;28;19912;-77
2021/04/27 16:02:13;;;;;;;;;;;;;;;;;;5058242;28;19912;-77
2021/04/27 16:04:38;;;;;;;;;;;;;;;;;;5057954;28;20290;-77
2021/04/27 16:07:03;;;;;;;;;;;;;;;;;;5074467;28;19916;-76
2021/04/27 16:09:29;;;;;;;;;;;;;;;;;;5073980;28;20117;-77
2021/04/27 16:11:54;;;;;;;;;;;;;;;;;;5041001;28;19912;-77
2021/04/27 16:14:19;;;;;;;;;;;;;;;;;;5040562;28;19916;-76
2021/04/27 16:16:44;;;;;;;;;;;;;;;;;;5057780;28;19920;-76
2021/04/27 16:19:10;;;;;;;;;;;;;;;;;;5057589;28;19985;-77
2021/04/27 16:21:35;;;;;;;;;;;;;;;;;;5037730;28;20011;-76
2021/04/27 16:24:00;;;;;;;;;;;;;;;;;;5037827;28;19912;-76
2021/04/27 16:26:26;;;;;;;;;;;;;;;;;;5020921;28;19951;-77
2021/04/27 16:28:51;;;;;;;;;;;;;;;;;;5054031;28;19913;-76
2021/04/27 16:31:16;;;;;;;;;;;;;;;;;;5037607;28;19917;-76
2021/04/27 16:33:42;;;;;;;;;;;;;;;;;;5037542;28;19912;-77
2021/04/27 16:36:07;;;;;;;;;;;;;;;;;;5037709;28;19919;-77
2021/04/27 16:38:32;;;;;;;;;;;;;;;;;;5057110;28;19916;-77
2021/04/27 16:40:58;;;;;;;;;;;;;;;;;;5057160;28;19952;-77
2021/04/27 16:43:23;;;;;;;;;;;;;;;;;;5057431;28;19923;-77